Time;durP1;ratioP1;P1;durP2;ratioP2;P2;SDS_P1;SDS_P2;PMS_P1;PMS_P2;Temp;Humidity;BMP_temperature;BMP_pressure;BME280_temperature;BME280_humidity;BME280_pressure;Samples;Min_cycle;Max_cycle;Signal;HPM_P1;HPM_P2
2022/05/22 00:01:29;;;;;;;4.60;2.10;;;;;;;17.14;65.82;98110.98;25128;1315;3027901;-62
2022/05/22 00:03:58;;;;;;;8.20;2.40;;;;;;;17.28;63.88;98123.31;25080;1315;3070172;-62
2022/05/22 00:06:27;;;;;;;11.30;2.60;;;;;;;17.00;63.43;98120.81;25112;1315;3026823;-64
2022/05/22 00:08:56;;;;;;;12.30;2.70;;;;;;;16.91;62.62;98108.20;25092;1315;3052810;-65
2022/05/22 00:11:25;;;;;;;20.70;3.30;;;;;;;16.75;62.95;98111.65;25042;1315;3026470;-62
2022/05/22 00:13:55;;;;;;;13.70;4.30;;;;;;;16.49;63.23;98109.61;25065;1315;3054077;-64
2022/05/22 00:16:37;;;;;;;14.60;5.10;;;;;;;16.21;63.24;98126.70;25084;1315;3028853;-68
2022/05/22 00:19:10;;;;;;;24.20;5.70;;;;;;;16.13;62.82;98121.77;25111;1313;3069150;-64
2022/05/22 00:21:40;;;;;;;21.10;6.30;;;;;;;16.04;62.76;98121.11;25114;1313;3026607;-69
2022/05/22 00:24:11;;;;;;;22.10;6.50;;;;;;;15.85;62.91;98123.92;25062;1314;3028335;-62
2022/05/22 00:26:40;;;;;;;27.90;6.70;;;;;;;15.85;63.15;98112.67;25114;1315;3026789;-66
2022/05/22 00:29:09;;;;;;;19.20;5.30;;;;;;;15.81;62.69;98114.46;25087;1314;3026334;-63
2022/05/22 00:31:38;;;;;;;19.60;5.20;;;;;;;15.66;63.48;98110.16;25138;1315;3054034;-66
2022/05/22 00:34:07;;;;;;;17.30;5.00;;;;;;;15.50;63.23;98118.17;25092;1315;3026081;-65
2022/05/22 00:36:36;;;;;;;29.80;5.00;;;;;;;15.53;62.96;98107.63;25062;1314;3050855;-63
2022/05/22 00:39:05;;;;;;;11.50;2.90;;;;;;;15.51;62.64;98112.04;25109;1314;3028253;-64
2022/05/22 00:41:34;;;;;;;19.40;3.00;;;;;;;15.44;62.50;98115.77;25048;1315;3070874;-69
2022/05/22 00:44:05;;;;;;;13.80;3.10;;;;;;;15.30;62.89;98119.38;25079;1314;3026519;-64
2022/05/22 00:46:34;;;;;;;16.60;3.90;;;;;;;15.30;62.71;98115.79;25093;1314;3026436;-68
2022/05/22 00:49:09;;;;;;;17.00;2.90;;;;;;;15.22;62.58;98115.36;25137;1314;3026860;-65
2022/05/22 00:51:46;;;;;;;19.50;3.50;;;;;;;15.12;62.54;98116.00;25087;1314;3056231;-70
2022/05/22 00:54:18;;;;;;;13.90;3.10;;;;;;;15.07;62.47;98118.05;25031;1315;3054175;-63
2022/05/22 00:57:10;;;;;;;12.10;3.20;;;;;;;14.98;62.46;98117.00;25099;1314;3026250;-70
2022/05/22 00:59:41;;;;;;;9.70;2.90;;;;;;;14.89;62.47;98115.67;25048;1315;3051208;-67
2022/05/22 01:02:13;;;;;;;16.90;3.60;;;;;;;14.82;62.30;98115.67;25053;1315;3026682;-64
2022/05/22 01:04:44;;;;;;;24.50;4.00;;;;;;;14.83;62.15;98105.14;25066;1314;3027102;-66
2022/05/22 01:07:13;;;;;;;13.90;3.70;;;;;;;14.78;61.82;98104.02;25143;1315;3027185;-63
2022/05/22 01:09:42;;;;;;;19.90;3.20;;;;;;;14.77;61.82;98103.59;25121;1314;3026522;-62
2022/05/22 01:12:22;;;;;;;15.90;3.20;;;;;;;14.70;61.59;98101.84;25524;1314;3050470;-59
2022/05/22 01:14:54;;;;;;;20.10;2.20;;;;;;;14.58;61.63;98098.20;25528;1314;3052018;-58
2022/05/22 01:17:24;;;;;;;11.80;2.30;;;;;;;14.55;61.46;98089.86;25522;1314;3026253;-58
2022/05/22 01:19:58;;;;;;;7.80;1.70;;;;;;;14.59;61.08;98084.61;25144;1314;3027194;-63
2022/05/22 01:22:28;;;;;;;14.50;1.90;;;;;;;14.49;61.17;98075.20;25123;1314;3052066;-61
2022/05/22 01:24:57;;;;;;;9.80;1.60;;;;;;;14.46;61.18;98075.14;25058;1314;3026741;-71
2022/05/22 01:27:27;;;;;;;8.80;1.50;;;;;;;14.45;61.48;98063.77;25046;1315;3027452;-64
2022/05/22 01:30:05;;;;;;;16.50;1.80;;;;;;;14.42;61.54;98068.11;25049;1315;3026300;-69
2022/05/22 01:32:36;;;;;;;12.20;1.90;;;;;;;14.40;61.46;98065.45;25085;1315;3051106;-66
2022/05/22 01:35:10;;;;;;;8.90;2.00;;;;;;;14.41;61.39;98063.61;25064;1315;3026494;-65
2022/05/22 01:37:39;;;;;;;11.40;3.00;;;;;;;14.36;61.98;98058.95;25048;1315;3026990;-65
2022/05/22 01:40:13;;;;;;;7.30;2.60;;;;;;;14.34;61.93;98057.96;25073;1313;3057379;-70
2022/05/22 01:42:44;;;;;;;8.70;3.00;;;;;;;14.28;62.16;98052.40;25110;1313;3026953;-64
2022/05/22 01:45:17;;;;;;;9.90;3.30;;;;;;;14.19;62.35;98054.83;25104;1315;3028551;-60
2022/05/22 01:47:46;;;;;;;15.80;4.80;;;;;;;14.15;62.55;98057.55;25059;1315;3027287;-67
2022/05/22 01:50:15;;;;;;;13.20;5.20;;;;;;;14.09;62.40;98041.85;25105;1315;3027766;-67
2022/05/22 01:52:44;;;;;;;14.00;5.10;;;;;;;14.07;62.70;98048.06;25040;1315;3054993;-62
2022/05/22 01:55:14;;;;;;;16.20;5.90;;;;;;;14.12;62.25;98045.77;25080;1313;3026678;-65
2022/05/22 01:57:47;;;;;;;23.40;6.20;;;;;;;14.10;62.26;98036.91;25084;1313;3030834;-60
2022/05/22 02:00:19;;;;;;;15.70;6.00;;;;;;;14.02;62.66;98049.23;25046;1313;3026221;-62
2022/05/22 02:02:48;;;;;;;19.80;6.70;;;;;;;14.02;62.59;98063.55;25087;1315;3026111;-65
2022/05/22 02:05:23;;;;;;;22.50;7.00;;;;;;;14.07;62.60;98059.38;25114;1315;3055581;-66
2022/05/22 02:10:44;;;;;;;18.50;8.70;;;;;;;14.19;62.30;98066.76;25068;1315;3050412;-64
2022/05/22 02:13:18;;;;;;;24.50;8.80;;;;;;;14.18;62.30;98053.67;25086;1315;3026499;-63
2022/05/22 02:15:48;;;;;;;20.50;6.70;;;;;;;14.12;62.34;98045.09;25037;1315;3026850;-68
2022/05/22 02:18:18;;;;;;;20.30;6.50;;;;;;;14.20;62.07;98049.95;25139;1318;3026802;-68
2022/05/22 02:20:50;;;;;;;17.60;6.60;;;;;;;14.18;61.90;98046.80;25008;1315;3026290;-69
2022/05/22 02:23:20;;;;;;;17.80;6.30;;;;;;;14.22;61.57;98041.13;25072;1315;3026775;-68
2022/05/22 02:25:51;;;;;;;23.10;6.70;;;;;;;14.18;61.79;98052.05;25099;1315;3026858;-67
2022/05/22 02:28:21;;;;;;;21.20;6.30;;;;;;;14.28;61.22;98043.58;25082;1315;3025795;-68
2022/05/22 02:30:55;;;;;;;12.80;5.00;;;;;;;14.26;60.80;98061.89;25046;1315;3028077;-63
2022/05/22 02:33:26;;;;;;;22.30;6.70;;;;;;;14.20;61.12;98061.11;25099;1315;3056166;-62
2022/05/22 02:36:00;;;;;;;15.40;5.90;;;;;;;14.25;60.84;98064.13;25064;1315;3028820;-72
2022/05/22 02:38:33;;;;;;;;;;;;;;;14.32;60.77;98073.34;25034;1315;3069180;-67
2022/05/22 02:41:15;;;;;;;17.80;7.50;;;;;;;14.24;60.57;98070.90;25046;1315;3026429;-66
2022/05/22 02:43:48;;;;;;;24.00;7.20;;;;;;;14.34;60.55;98072.77;25121;1313;3052697;-68
2022/05/22 02:46:17;;;;;;;15.50;7.00;;;;;;;14.29;60.31;98083.91;25031;1315;3026804;-64
2022/05/22 02:48:46;;;;;;;13.90;5.50;;;;;;;14.25;60.16;98091.23;25107;1313;3048762;-64
2022/05/22 02:51:18;;;;;;;10.50;3.90;;;;;;;14.34;60.38;98093.14;25103;1314;3028291;-69
2022/05/22 02:53:47;;;;;;;16.00;4.40;;;;;;;14.35;60.06;98091.30;25040;1315;3027051;-67
2022/05/22 02:56:27;;;;;;;16.00;3.70;;;;;;;14.37;59.78;98094.44;25057;1315;3059233;-67
2022/05/22 02:59:35;;;;;;;8.80;2.70;;;;;;;14.28;60.32;98100.25;24988;1315;3052516;-65
2022/05/22 03:02:15;;;;;;;9.00;2.70;;;;;;;14.32;60.08;98104.09;25053;1315;3054670;-63
2022/05/22 03:04:45;;;;;;;6.10;2.30;;;;;;;14.31;60.07;98103.68;25062;1315;3026271;-59
2022/05/22 03:07:17;;;;;;;9.70;2.30;;;;;;;14.33;60.18;98097.66;25102;1315;3026555;-65
2022/05/22 03:09:47;;;;;;;5.90;2.00;;;;;;;14.33;60.42;98098.78;25046;1316;3027787;-69
2022/05/22 03:12:22;;;;;;;12.10;2.60;;;;;;;14.30;60.23;98104.11;25085;1315;3026464;-65
2022/05/22 03:14:55;;;;;;;13.50;1.90;;;;;;;14.15;60.69;98104.17;25113;1315;3052701;-68
2022/05/22 03:17:25;;;;;;;10.70;1.80;;;;;;;14.16;60.76;98109.73;25036;1315;3026079;-67
2022/05/22 03:19:55;;;;;;;7.20;1.80;;;;;;;14.08;60.53;98111.87;25077;1315;3026954;-69
2022/05/22 03:22:25;;;;;;;7.50;2.40;;;;;;;14.20;60.79;98109.67;25046;1315;3028985;-65
2022/05/22 03:24:54;;;;;;;12.00;2.60;;;;;;;14.07;61.19;98109.90;25113;1314;3026483;-63
2022/05/22 03:27:23;;;;;;;6.50;2.80;;;;;;;14.24;60.61;98102.91;25120;1313;3050966;-68
2022/05/22 03:29:54;;;;;;;15.90;2.30;;;;;;;14.17;61.34;98105.35;25113;1315;3026925;-59
2022/05/22 03:32:23;;;;;;;7.80;2.60;;;;;;;14.14;61.05;98099.70;25071;1313;3026906;-63
2022/05/22 03:34:52;;;;;;;9.60;3.00;;;;;;;14.15;60.87;98095.77;25014;1315;3052538;-62
2022/05/22 03:37:24;;;;;;;8.90;2.20;;;;;;;14.11;60.87;98094.52;25085;1315;3026144;-65
2022/05/22 03:39:54;;;;;;;5.80;2.30;;;;;;;14.18;60.05;98090.17;25071;1315;3026768;-68
2022/05/22 03:42:24;;;;;;;16.20;2.60;;;;;;;14.18;60.06;98071.09;25078;1315;3026948;-65
2022/05/22 03:44:54;;;;;;;7.30;2.10;;;;;;;14.12;59.63;98089.09;25113;1315;3026138;-62
2022/05/22 03:47:23;;;;;;;8.00;2.20;;;;;;;14.18;59.13;98086.81;25062;1315;3027485;-63
2022/05/22 03:50:15;;;;;;;5.90;1.90;;;;;;;14.13;59.35;98088.88;25091;1313;3053971;-66
2022/05/22 03:52:47;;;;;;;9.70;2.00;;;;;;;14.13;59.21;98069.89;25024;1315;3027883;-62
2022/05/22 03:55:36;;;;;;;7.80;2.50;;;;;;;14.10;59.53;98065.23;25049;1315;3050424;-68
2022/05/22 03:58:05;;;;;;;11.80;2.90;;;;;;;14.17;59.17;98061.41;25071;1315;3026612;-66
2022/05/22 04:00:35;;;;;;;11.60;2.80;;;;;;;14.28;58.87;98051.83;25047;1315;3058584;-65
2022/05/22 04:03:07;;;;;;;7.70;3.00;;;;;;;14.22;58.89;98060.67;25046;1316;3027211;-66
2022/05/22 04:05:36;;;;;;;15.10;3.30;;;;;;;14.25;58.95;98060.27;25077;1315;3026569;-64
2022/05/22 04:08:06;;;;;;;9.30;3.30;;;;;;;14.19;59.02;98059.61;25097;1315;3026930;-66
2022/05/22 04:10:41;;;;;;;8.80;3.20;;;;;;;14.18;59.10;98076.58;25066;1315;3071943;-63
2022/05/22 04:13:15;;;;;;;22.70;3.70;;;;;;;14.14;59.54;98081.23;25055;1314;3051887;-65
2022/05/22 04:15:46;;;;;;;27.10;5.50;;;;;;;14.19;59.11;98070.88;25071;1315;3026209;-62
2022/05/22 04:18:16;;;;;;;10.70;3.80;;;;;;;14.08;59.12;98063.45;25119;1313;3026648;-59
2022/05/22 04:20:45;;;;;;;10.60;4.30;;;;;;;14.19;59.02;98072.62;25098;1315;3027034;-66
2022/05/22 04:26:32;;;;;;;10.10;5.50;;;;;;;14.16;59.09;98069.62;25144;1313;3056117;-62
2022/05/22 04:29:03;;;;;;;15.60;6.80;;;;;;;14.12;59.12;98063.11;25057;1313;3026847;-68
2022/05/22 04:31:32;;;;;;;18.30;6.40;;;;;;;14.23;59.00;98061.14;25083;1315;3027107;-64
2022/05/22 04:34:09;;;;;;;20.10;6.40;;;;;;;14.28;59.14;98061.05;25131;1313;3049402;-66
2022/05/22 04:36:41;;;;;;;12.20;6.20;;;;;;;14.19;59.17;98078.47;25018;1315;3029578;-65
2022/05/22 04:39:11;;;;;;;19.00;5.50;;;;;;;14.29;58.90;98068.63;25066;1313;3026899;-66
2022/05/22 04:41:41;;;;;;;18.60;5.70;;;;;;;14.34;58.85;98067.32;25013;1315;3027160;-67
2022/05/22 04:44:12;;;;;;;16.80;5.80;;;;;;;14.38;58.31;98079.23;25084;1314;3026479;-65
2022/05/22 04:46:41;;;;;;;17.50;5.50;;;;;;;14.35;58.40;98074.61;25085;1314;3028542;-67
2022/05/22 04:49:12;;;;;;;15.90;4.70;;;;;;;14.36;58.61;98069.23;25108;1315;3057808;-66
2022/05/22 04:51:41;;;;;;;6.20;3.50;;;;;;;14.32;58.05;98068.29;25042;1315;3026910;-67
2022/05/22 04:54:12;;;;;;;7.10;3.20;;;;;;;14.25;58.68;98069.52;25123;1313;3054909;-64
2022/05/22 04:56:45;;;;;;;11.00;2.50;;;;;;;14.22;58.59;98075.10;25049;1313;3027618;-66
2022/05/22 04:59:18;;;;;;;8.20;1.70;;;;;;;14.26;58.80;98057.96;25083;1313;3052957;-67
2022/05/22 05:01:48;;;;;;;6.40;1.90;;;;;;;14.46;58.42;98052.65;25087;1314;3026647;-67
2022/05/22 05:04:25;;;;;;;7.10;2.10;;;;;;;14.42;58.38;98055.56;25094;1318;3051031;-65
2022/05/22 05:06:58;;;;;;;10.60;2.30;;;;;;;14.28;58.77;98054.14;25066;1313;3026597;-64
2022/05/22 05:09:47;;;;;;;5.10;1.80;;;;;;;14.41;58.45;98053.54;25050;1313;3051446;-66
2022/05/22 05:12:23;;;;;;;7.00;2.10;;;;;;;14.40;58.42;98052.05;25048;1313;3055447;-65
2022/05/22 05:14:53;;;;;;;3.30;1.50;;;;;;;14.45;57.95;98049.45;25040;1315;3026426;-68
2022/05/22 05:17:22;;;;;;;8.30;2.20;;;;;;;14.60;57.00;98046.26;25059;1313;3026751;-67
2022/05/22 05:19:52;;;;;;;8.50;1.70;;;;;;;14.62;57.15;98043.71;25101;1313;3026855;-68
2022/05/22 05:22:20;;;;;;;5.50;1.90;;;;;;;14.66;56.86;98043.02;25052;1313;3026462;-65
2022/05/22 05:24:55;;;;;;;3.30;2.00;;;;;;;14.82;56.30;98035.61;25027;1317;3057742;-68
2022/05/22 05:27:27;;;;;;;5.80;2.10;;;;;;;14.94;55.82;98037.80;25060;1313;3026860;-69
2022/05/22 05:30:04;;;;;;;12.50;3.40;;;;;;;15.01;54.81;98035.64;25042;1313;3056088;-66
2022/05/22 05:32:36;;;;;;;5.60;3.50;;;;;;;14.95;53.96;98049.11;25052;1313;3050860;-68
2022/05/22 05:35:09;;;;;;;12.60;3.20;;;;;;;15.10;53.75;98022.22;25098;1313;3026577;-61
2022/05/22 05:37:39;;;;;;;10.50;3.20;;;;;;;15.08;54.22;98013.45;25039;1313;3052745;-64
2022/05/22 05:40:18;;;;;;;9.50;3.00;;;;;;;15.11;53.74;98043.81;25069;1314;3054537;-68
2022/05/22 05:42:48;;;;;;;10.00;2.50;;;;;;;15.02;53.58;98029.65;25085;1313;3028088;-67
2022/05/22 05:45:18;;;;;;;10.00;3.40;;;;;;;15.02;53.82;98024.95;25154;1315;3026539;-67
2022/05/22 05:47:54;;;;;;;6.90;2.30;;;;;;;15.20;53.64;98030.88;25103;1314;3052139;-64
2022/05/22 05:50:41;;;;;;;6.90;2.20;;;;;;;15.17;53.26;98036.46;25121;1315;3055636;-67
2022/05/22 05:53:14;;;;;;;6.30;2.20;;;;;;;15.15;53.32;98041.75;25120;1317;3059211;-69
2022/05/22 05:55:50;;;;;;;7.40;2.00;;;;;;;15.11;52.80;98046.10;25214;1313;3049616;-57
2022/05/22 05:58:46;;;;;;;9.80;1.90;;;;;;;15.07;52.97;98036.80;25535;1315;3053208;-58
2022/05/22 06:01:24;;;;;;;8.00;1.60;;;;;;;15.23;52.54;98031.24;25502;1315;3051232;-58
2022/05/22 06:03:53;;;;;;;17.80;2.60;;;;;;;15.30;52.27;98034.12;25379;1315;3026437;-64
2022/05/22 06:06:22;;;;;;;13.00;2.70;;;;;;;15.33;51.94;98031.98;25101;1313;3026660;-64
2022/05/22 06:08:52;;;;;;;12.00;2.70;;;;;;;15.34;51.57;98035.23;25136;1315;3027627;-65
2022/05/22 06:11:48;;;;;;;13.70;2.30;;;;;;;15.24;51.49;98036.15;25044;1315;3054296;-64
2022/05/22 06:14:41;;;;;;;8.40;2.70;;;;;;;15.14;51.29;98035.66;25031;1313;3058424;-66
2022/05/22 06:17:12;;;;;;;6.00;2.30;;;;;;;15.18;51.86;98026.19;25126;1315;3026547;-63
2022/05/22 06:19:59;;;;;;;7.70;2.00;;;;;;;15.33;52.03;98032.42;25096;1315;3026519;-66
2022/05/22 06:22:34;;;;;;;11.50;2.50;;;;;;;15.33;52.01;98027.83;25085;1315;3052693;-72
2022/05/22 06:25:07;;;;;;;9.40;1.80;;;;;;;15.37;51.42;98024.59;25124;1315;3026344;-63
2022/05/22 06:27:48;;;;;;;9.60;2.00;;;;;;;15.24;50.83;98028.88;25098;1315;3049091;-69
2022/05/22 06:30:43;;;;;;;11.70;1.80;;;;;;;15.19;50.83;98026.24;25050;1313;3052439;-69
2022/05/22 06:33:23;;;;;;;11.30;1.60;;;;;;;15.28;51.16;98012.05;25122;1315;3055078;-67
2022/05/22 06:36:15;;;;;;;10.30;2.10;;;;;;;15.34;50.31;98009.98;25057;1315;3057337;-64
2022/05/22 06:42:00;;;;;;;11.70;1.90;;;;;;;15.18;49.42;98001.63;25093;1316;3055377;-61
2022/05/22 06:45:06;;;;;;;3.10;1.30;;;;;;;15.28;49.71;98008.39;25019;1315;3054297;-65
2022/05/22 06:47:53;;;;;;;2.40;1.40;;;;;;;15.19;49.16;98005.44;25030;1315;3071454;-64
2022/05/22 06:50:48;;;;;;;5.50;1.50;;;;;;;15.41;49.50;97994.52;25110;1313;3051837;-66
2022/05/22 06:53:37;;;;;;;3.30;1.40;;;;;;;15.60;50.07;97996.89;25000;1313;3055003;-65
2022/05/22 06:56:26;;;;;;;4.30;1.60;;;;;;;15.64;49.04;97994.45;25041;1315;3055471;-65
2022/05/22 06:59:22;;;;;;;10.50;1.90;;;;;;;15.76;48.27;98001.28;25080;1313;3057632;-61
2022/05/22 07:02:15;;;;;;;8.90;2.10;;;;;;;15.76;48.25;97992.27;25088;1314;3052420;-65
2022/05/22 07:05:08;;;;;;;7.90;3.20;;;;;;;15.92;48.11;98003.15;25068;1315;3055948;-67
2022/05/22 07:07:58;;;;;;;10.60;2.40;;;;;;;15.75;47.55;97995.05;25078;1315;3051313;-72
2022/05/22 07:13:47;;;;;;;7.50;1.80;;;;;;;15.80;46.96;98009.53;25112;1313;3050396;-70
2022/05/22 07:16:40;;;;;;;7.50;1.50;;;;;;;15.80;46.97;97988.88;25053;1313;3054169;-68
2022/05/22 07:19:12;;;;;;;4.80;1.70;;;;;;;16.05;47.08;97991.57;25145;1315;3026441;-68
2022/05/22 07:22:06;;;;;;;5.60;2.40;;;;;;;16.26;47.00;97982.91;25087;1315;3057669;-66
2022/05/22 07:24:55;;;;;;;10.30;2.40;;;;;;;16.35;46.94;97980.16;25035;1315;3052876;-68
2022/05/22 07:27:54;;;;;;;6.60;3.30;;;;;;;16.41;46.87;97986.31;25034;1318;3053760;-68
2022/05/22 07:30:33;;;;;;;5.00;2.10;;;;;;;16.38;46.41;97977.38;25081;1315;3050963;-61
2022/05/22 07:33:22;;;;;;;10.20;2.10;;;;;;;16.14;46.20;97989.70;25102;1313;3071011;-71
2022/05/22 07:36:11;;;;;;;6.00;2.50;;;;;;;16.02;46.08;97979.45;25113;1315;3051615;-68
2022/05/22 07:38:59;;;;;;;8.60;2.70;;;;;;;16.13;45.93;97973.04;25040;1315;3055347;-63
2022/05/22 07:41:40;;;;;;;10.20;2.50;;;;;;;16.28;45.83;97971.77;25101;1317;3055054;-64
2022/05/22 07:44:16;;;;;;;12.20;2.50;;;;;;;16.26;45.67;97978.31;25101;1313;3056807;-69
2022/05/22 07:46:53;;;;;;;9.70;2.50;;;;;;;16.39;45.79;97970.59;25047;1315;3052204;-60
2022/05/22 07:53:02;;;;;;;2.70;1.50;;;;;;;16.49;45.34;97970.02;25064;1315;3054615;-70
2022/05/22 07:55:39;;;;;;;2.40;1.10;;;;;;;16.34;44.97;97974.14;25128;1313;3071797;-63
2022/05/22 07:58:25;;;;;;;4.20;0.90;;;;;;;16.46;44.57;97965.08;25098;1313;3051883;-68
2022/05/22 08:01:02;;;;;;;2.90;1.20;;;;;;;16.56;44.32;97958.27;25122;1315;3054574;-62
2022/05/22 08:03:51;;;;;;;5.30;1.30;;;;;;;16.55;44.67;97960.73;25048;1313;3054552;-72
2022/05/22 08:06:40;;;;;;;5.90;1.20;;;;;;;16.71;44.50;97961.42;25049;1315;3058617;-66
2022/05/22 08:10:08;;;;;;;1.70;0.80;;;;;;;16.69;44.19;97947.88;24964;1318;3053577;-72
2022/05/22 08:12:46;;;;;;;3.80;0.80;;;;;;;16.70;44.15;97957.11;25013;1318;3026419;-61
2022/05/22 08:15:37;;;;;;;3.30;1.10;;;;;;;16.64;44.68;97948.09;25036;1313;3053080;-63
2022/05/22 08:18:17;;;;;;;4.40;1.10;;;;;;;16.56;44.98;97965.73;25053;1315;3070896;-64
2022/05/22 08:20:49;;;;;;;4.30;1.60;;;;;;;16.70;45.07;97945.11;25056;1315;3026545;-71
2022/05/22 08:23:20;;;;;;;5.50;1.70;;;;;;;17.15;44.41;97945.86;25051;1314;3026602;-65
2022/05/22 08:26:04;;;;;;;7.30;1.40;;;;;;;17.25;43.74;97949.31;25070;1313;3055663;-65
2022/05/22 08:28:36;;;;;;;3.50;1.10;;;;;;;17.27;43.86;97960.46;25128;1315;3026402;-64
2022/05/22 08:31:06;;;;;;;4.70;1.50;;;;;;;17.32;44.22;97946.82;25046;1314;3026508;-67
2022/05/22 08:33:36;;;;;;;4.20;1.60;;;;;;;17.46;44.08;97947.02;25067;1315;3026464;-63
2022/05/22 08:36:08;;;;;;;3.90;1.50;;;;;;;17.34;44.48;97950.02;25087;1313;3051684;-65
2022/05/22 08:38:38;;;;;;;7.60;1.90;;;;;;;17.10;44.94;97953.27;25097;1313;3026083;-68
2022/05/22 08:41:11;;;;;;;3.00;1.50;;;;;;;17.00;45.35;97948.91;25076;1313;3055382;-64
2022/05/22 08:43:48;;;;;;;6.70;1.70;;;;;;;17.24;45.12;97940.55;25068;1313;3054360;-64
2022/05/22 08:46:34;;;;;;;3.50;1.40;;;;;;;17.53;44.91;97937.85;25065;1313;3071248;-71
2022/05/22 08:49:32;;;;;;;4.90;1.50;;;;;;;17.62;44.82;97946.92;25139;1315;3048770;-64
2022/05/22 08:52:45;;;;;;;7.90;1.80;;;;;;;17.47;44.94;97938.69;25103;1313;3054898;-61
2022/05/22 09:01:16;;;;;;;7.70;2.20;;;;;;;17.71;44.82;97925.27;25113;1313;3052786;-68
2022/05/22 09:03:56;;;;;;;9.30;2.10;;;;;;;17.73;44.94;97923.71;25032;1315;3052649;-60
2022/05/22 09:06:46;;;;;;;5.50;1.10;;;;;;;17.52;45.13;97927.90;25108;1313;3054447;-65
2022/05/22 09:09:17;;;;;;;3.30;1.10;;;;;;;17.64;44.57;97924.56;25067;1313;3069198;-66
2022/05/22 09:12:29;;;;;;;8.60;1.10;;;;;;;17.54;44.50;97928.92;25092;1315;3052964;-70
2022/05/22 09:15:08;;;;;;;7.30;1.00;;;;;;;17.62;44.69;97920.45;25039;1315;3055186;-67
2022/05/22 09:17:50;;;;;;;4.70;1.00;;;;;;;17.74;44.77;97919.15;25022;1315;3055185;-67
2022/05/22 09:20:22;;;;;;;24.10;1.40;;;;;;;17.85;44.67;97911.17;25061;1315;3057269;-66
2022/05/22 09:23:01;;;;;;;3.30;1.00;;;;;;;17.95;44.86;97914.81;25140;1312;3026639;-62
2022/05/22 09:25:44;;;;;;;4.40;1.00;;;;;;;18.09;44.43;97921.88;25086;1313;3055957;-66
2022/05/22 09:28:23;;;;;;;7.10;1.00;;;;;;;18.17;44.38;97911.45;25041;1315;3054297;-67
2022/05/22 09:31:26;;;;;;;8.90;1.50;;;;;;;18.18;44.58;97923.50;25100;1314;3069447;-64
2022/05/22 09:34:00;;;;;;;4.90;1.00;;;;;;;18.10;44.19;97914.20;25098;1313;3051592;-59
2022/05/22 09:36:41;;;;;;;6.00;0.90;;;;;;;18.03;44.27;97915.80;25080;1315;3026676;-64
2022/05/22 09:39:49;;;;;;;3.00;1.00;;;;;;;17.94;44.34;97911.93;25122;1315;3052860;-68
2022/05/22 09:42:27;;;;;;;4.70;1.40;;;;;;;18.01;44.11;97904.63;25048;1313;3057625;-68
2022/05/22 09:45:15;;;;;;;3.20;1.10;;;;;;;17.88;44.26;97911.54;25120;1315;3052227;-68
2022/05/22 09:48:27;;;;;;;8.20;1.10;;;;;;;17.94;43.99;97921.93;25104;1313;3055572;-69
2022/05/22 09:51:17;;;;;;;3.80;1.60;;;;;;;17.83;44.20;97924.58;25050;1315;3054220;-70
2022/05/22 09:53:54;;;;;;;6.10;1.20;;;;;;;17.85;44.21;97903.09;25144;1315;3071525;-68
2022/05/22 09:56:52;;;;;;;7.50;1.30;;;;;;;17.92;44.13;97905.80;25077;1315;3048704;-72
2022/05/22 09:59:50;;;;;;;7.00;1.00;;;;;;;17.91;44.24;97908.04;24996;1315;3052658;-69
2022/05/22 10:02:24;;;;;;;3.40;1.40;;;;;;;17.90;43.92;97912.81;25068;1313;3055115;-62
2022/05/22 10:05:03;;;;;;;4.80;1.20;;;;;;;18.11;43.51;97901.71;25093;1315;3059096;-65
2022/05/22 10:07:56;;;;;;;4.20;1.10;;;;;;;18.35;42.77;97900.77;25115;1313;3049484;-68
2022/05/22 10:10:28;;;;;;;3.40;1.60;;;;;;;18.50;41.79;97901.73;25142;1315;3056006;-68
2022/05/22 10:13:50;;;;;;;4.20;1.30;;;;;;;18.30;41.59;97898.45;25073;1313;3052807;-62
2022/05/22 10:16:43;;;;;;;4.20;1.00;;;;;;;18.24;41.50;97889.23;24875;1320;3071858;-70
2022/05/22 10:19:21;;;;;;;3.90;1.30;;;;;;;18.11;41.12;97884.08;25042;1315;3049145;-74
2022/05/22 10:22:28;;;;;;;8.60;1.50;;;;;;;17.87;40.75;97903.54;25111;1315;3054416;-68
2022/05/22 10:25:09;;;;;;;4.40;1.50;;;;;;;18.10;40.60;97899.09;25118;1315;3055119;-71
2022/05/22 10:27:41;;;;;;;8.60;1.40;;;;;;;18.06;40.85;97905.34;25123;1315;3058540;-72
2022/05/22 10:30:32;;;;;;;2.20;1.00;;;;;;;18.06;40.48;97888.86;25110;1315;3026763;-68
2022/05/22 10:33:03;;;;;;;7.90;1.70;;;;;;;18.15;40.53;97879.04;25071;1315;3053421;-61
2022/05/22 10:35:47;;;;;;;10.50;1.50;;;;;;;18.13;40.64;97884.77;25138;1315;3026525;-67
2022/05/22 10:38:21;;;;;;;5.10;1.30;;;;;;;18.11;40.63;97892.84;25121;1315;3069438;-69
2022/05/22 10:43:45;;;;;;;6.70;1.20;;;;;;;18.07;40.72;97882.84;25559;1314;3054837;-60
2022/05/22 10:46:14;;;;;;;5.20;1.20;;;;;;;18.37;40.36;97884.08;25551;1315;3026430;-59
2022/05/22 10:48:53;;;;;;;5.70;1.20;;;;;;;18.64;39.99;97874.52;25537;1315;3026349;-58
2022/05/22 10:51:24;;;;;;;6.70;1.40;;;;;;;18.99;40.12;97872.70;25283;1315;3052879;-67
2022/05/22 10:53:56;;;;;;;5.80;1.80;;;;;;;19.19;39.79;97877.33;25198;1315;3026307;-63
2022/05/22 10:56:30;;;;;;;5.70;1.70;;;;;;;19.17;40.17;97870.34;25103;1314;3028749;-66
2022/05/22 10:59:00;;;;;;;;;;;;;;;19.24;40.07;97864.82;25071;1315;3050317;-72
2022/05/22 11:01:37;;;;;;;5.20;1.50;;;;;;;19.16;39.84;97872.45;25092;1315;3026743;-70
2022/05/22 11:04:11;;;;;;;5.60;0.90;;;;;;;18.78;39.19;97897.30;25129;1315;3053637;-73
2022/05/22 11:06:58;;;;;;;4.00;1.10;;;;;;;18.39;39.85;97894.70;25065;1315;3068751;-70
2022/05/22 11:09:29;;;;;;;5.50;0.90;;;;;;;18.44;39.95;97890.06;25084;1315;3050984;-61
2022/05/22 11:12:06;;;;;;;3.80;1.20;;;;;;;18.69;40.00;97886.17;25146;1315;3027578;-70
2022/05/22 11:14:37;;;;;;;2.10;1.10;;;;;;;19.06;39.65;97877.88;25069;1315;3056008;-65
2022/05/22 11:17:07;;;;;;;5.00;2.50;;;;;;;19.28;39.73;97868.48;25070;1315;3026405;-68
2022/05/22 11:19:41;;;;;;;8.80;3.20;;;;;;;19.23;39.69;97877.58;25063;1313;3027137;-67
2022/05/22 11:22:31;;;;;;;4.50;2.40;;;;;;;18.93;40.14;97873.60;25142;1315;3053080;-63
2022/05/22 11:25:09;;;;;;;5.50;2.10;;;;;;;18.66;40.95;97882.45;25097;1315;3051632;-60
2022/05/22 11:28:17;;;;;;;6.20;1.70;;;;;;;18.54;41.50;97889.05;25059;1315;3070902;-67
2022/05/22 11:31:17;;;;;;;5.30;1.70;;;;;;;18.37;42.20;97896.34;25116;1315;3049200;-64
2022/05/22 11:34:11;;;;;;;6.80;1.40;;;;;;;17.88;43.23;97894.96;25150;1315;3053005;-62
2022/05/22 11:36:57;;;;;;;2.60;1.20;;;;;;;17.87;43.42;97890.58;25124;1315;3053498;-66
2022/05/22 11:39:57;;;;;;;3.00;1.10;;;;;;;17.99;43.05;97891.30;25145;1315;3058729;-70
2022/05/22 11:42:29;;;;;;;3.00;1.10;;;;;;;18.04;43.00;97890.46;24412;1315;3052655;-64
2022/05/22 11:45:19;;;;;;;4.90;1.50;;;;;;;18.33;42.81;97886.14;25101;1315;3055050;-64
2022/05/22 11:48:16;;;;;;;2.00;1.20;;;;;;;18.19;42.86;97892.63;25153;1314;3058786;-68
2022/05/22 11:50:47;;;;;;;2.40;1.10;;;;;;;18.18;43.10;97893.27;25072;1315;3051968;-65
2022/05/22 11:53:36;;;;;;;2.30;1.00;;;;;;;18.21;43.16;97887.79;25165;1315;3026542;-68
2022/05/22 11:56:26;;;;;;;2.80;1.00;;;;;;;18.21;42.95;97887.02;25078;1313;3053836;-62
2022/05/22 11:59:15;;;;;;;7.40;1.30;;;;;;;18.06;43.05;97887.55;25147;1315;3069343;-66
2022/05/22 12:02:10;;;;;;;4.90;1.30;;;;;;;18.15;42.57;97876.78;25128;1315;3049637;-68
2022/05/22 12:05:14;;;;;;;7.60;1.50;;;;;;;18.30;42.17;97876.25;25144;1315;3055129;-69
2022/05/22 12:07:49;;;;;;;3.90;1.10;;;;;;;18.25;42.38;97873.98;25114;1315;3053400;-67
2022/05/22 12:10:44;;;;;;;2.20;1.20;;;;;;;18.32;42.34;97876.36;25116;1315;3059279;-64
2022/05/22 12:13:30;;;;;;;2.30;0.90;;;;;;;18.11;42.45;97879.55;25023;1315;3052272;-61
2022/05/22 12:16:05;;;;;;;4.60;1.10;;;;;;;18.12;42.25;97881.93;25076;1315;3055459;-69
2022/05/22 12:18:53;;;;;;;4.20;1.30;;;;;;;17.97;42.51;97878.34;25135;1315;3051566;-67
2022/05/22 12:21:37;;;;;;;4.70;1.40;;;;;;;18.27;41.97;97879.59;25136;1315;3069280;-65
2022/05/22 12:24:13;;;;;;;5.30;2.00;;;;;;;18.62;41.22;97873.05;25147;1315;3051830;-66
2022/05/22 12:26:42;;;;;;;6.40;1.80;;;;;;;18.82;40.62;97872.89;25121;1315;3055177;-64
2022/05/22 12:29:13;;;;;;;3.50;1.40;;;;;;;18.68;41.08;97874.94;25080;1315;3029047;-70